Time;durP1;ratioP1;P1;durP2;ratioP2;P2;SDS_P1;SDS_P2;PMS_P1;PMS_P2;Temp;Humidity;BMP_temperature;BMP_pressure;BME280_temperature;BME280_humidity;BME280_pressure;Samples;Min_cycle;Max_cycle;Signal;HPM_P1;HPM_P2
2021/06/24 00:00:08;;;;;;;5.82;2.60;;;;;;;;;;5077002;28;20103;-40
2021/06/24 00:02:34;;;;;;;5.20;2.10;;;;;;;;;;5078826;28;20463;-40
2021/06/24 00:04:59;;;;;;;5.75;2.63;;;;;;;;;;5075765;28;20021;-39
2021/06/24 00:07:24;;;;;;;2.97;2.38;;;;;;;;;;5080854;28;20048;-39
2021/06/24 00:09:50;;;;;;;3.53;1.75;;;;;;;;;;5080340;28;20032;-40
2021/06/24 00:12:15;;;;;;;3.85;2.08;;;;;;;;;;5084764;28;20043;-39
2021/06/24 00:14:41;;;;;;;7.28;1.55;;;;;;;;;;5080547;28;20038;-40
2021/06/24 00:17:06;;;;;;;6.85;1.95;;;;;;;;;;5076486;28;20267;-39
2021/06/24 00:19:31;;;;;;;10.57;2.42;;;;;;;;;;5078260;28;20236;-39
2021/06/24 00:21:57;;;;;;;12.60;1.63;;;;;;;;;;5078296;28;20377;-39
2021/06/24 00:24:22;;;;;;;6.80;1.60;;;;;;;;;;5074181;28;20028;-39
2021/06/24 00:26:47;;;;;;;3.65;1.38;;;;;;;;;;5076821;28;20048;-39
2021/06/24 00:29:13;;;;;;;10.48;2.63;;;;;;;;;;5080340;28;20024;-40
2021/06/24 00:31:38;;;;;;;5.63;1.80;;;;;;;;;;5077733;28;20019;-39
2021/06/24 00:34:03;;;;;;;4.80;2.40;;;;;;;;;;5076330;28;20028;-39
2021/06/24 00:36:29;;;;;;;6.55;2.00;;;;;;;;;;5077551;28;20555;-39
2021/06/24 00:38:54;;;;;;;16.80;2.83;;;;;;;;;;5080178;28;20111;-40
2021/06/24 00:41:19;;;;;;;9.23;2.65;;;;;;;;;;5076678;28;20023;-39
2021/06/24 00:43:45;;;;;;;10.55;2.90;;;;;;;;;;5078646;28;20065;-39
2021/06/24 00:46:10;;;;;;;8.10;1.75;;;;;;;;;;5077291;28;20075;-39
2021/06/24 00:48:35;;;;;;;7.93;2.05;;;;;;;;;;5076602;28;20056;-40
2021/06/24 00:51:00;;;;;;;7.60;2.42;;;;;;;;;;5077033;28;20107;-40
2021/06/24 00:53:26;;;;;;;4.50;2.05;;;;;;;;;;5078080;28;20024;-40
2021/06/24 00:55:51;;;;;;;3.65;2.17;;;;;;;;;;5079474;28;20476;-40
2021/06/24 00:58:17;;;;;;;3.13;1.60;;;;;;;;;;5081329;28;20041;-39
2021/06/24 01:00:43;;;;;;;3.78;2.13;;;;;;;;;;5076714;28;20731;-39
2021/06/24 01:03:09;;;;;;;11.35;3.95;;;;;;;;;;5076880;28;20016;-39
2021/06/24 01:05:35;;;;;;;13.45;4.22;;;;;;;;;;5078673;28;20043;-39
2021/06/24 01:08:00;;;;;;;8.85;2.83;;;;;;;;;;5076218;28;20058;-39
2021/06/24 01:10:26;;;;;;;5.75;2.45;;;;;;;;;;5078449;28;20029;-39
2021/06/24 01:12:52;;;;;;;8.20;1.92;;;;;;;;;;5081277;28;20024;-39
2021/06/24 01:15:17;;;;;;;2.65;1.42;;;;;;;;;;5077237;28;20437;-39
2021/06/24 01:17:42;;;;;;;8.82;2.03;;;;;;;;;;5080579;28;20107;-39
2021/06/24 01:20:08;;;;;;;6.50;2.63;;;;;;;;;;5073298;28;20078;-40
2021/06/24 01:22:33;;;;;;;12.82;3.83;;;;;;;;;;5078760;28;20028;-39
2021/06/24 01:24:58;;;;;;;15.40;2.10;;;;;;;;;;5078054;28;20174;-39
2021/06/24 01:27:24;;;;;;;3.42;2.33;;;;;;;;;;5079839;28;20042;-39
2021/06/24 01:29:49;;;;;;;4.88;1.67;;;;;;;;;;5073167;28;20115;-40
2021/06/24 01:32:14;;;;;;;6.25;2.22;;;;;;;;;;5076276;28;20016;-39
2021/06/24 01:34:43;;;;;;;2.40;1.73;;;;;;;;;;5077788;28;20077;-39
2021/06/24 01:37:08;;;;;;;2.67;1.40;;;;;;;;;;5076328;28;20640;-39
2021/06/24 01:39:33;;;;;;;5.30;1.80;;;;;;;;;;5077693;28;20487;-38
2021/06/24 01:42:00;;;;;;;4.40;1.67;;;;;;;;;;5075082;28;20471;-39
2021/06/24 01:44:33;;;;;;;5.40;1.58;;;;;;;;;;5078535;28;20073;-42
2021/06/24 01:46:59;;;;;;;7.65;2.25;;;;;;;;;;5077857;28;20066;-39
2021/06/24 01:49:24;;;;;;;3.80;2.22;;;;;;;;;;5076917;28;20023;-38
2021/06/24 01:51:50;;;;;;;3.70;2.80;;;;;;;;;;5075335;28;20434;-39
2021/06/24 01:54:18;;;;;;;11.48;1.92;;;;;;;;;;5074976;28;20037;-40
2021/06/24 01:56:44;;;;;;;4.65;1.60;;;;;;;;;;5074824;28;20027;-42
2021/06/24 01:59:09;;;;;;;16.73;1.92;;;;;;;;;;5076860;28;20387;-40
2021/06/24 02:01:34;;;;;;;6.00;2.40;;;;;;;;;;5076548;28;20099;-39
2021/06/24 02:04:00;;;;;;;2.25;1.35;;;;;;;;;;5078718;28;20090;-40
2021/06/24 02:06:25;;;;;;;4.35;2.00;;;;;;;;;;5073165;28;20017;-40
2021/06/24 02:08:50;;;;;;;3.00;1.55;;;;;;;;;;5077717;28;20035;-40
2021/06/24 02:11:16;;;;;;;5.72;2.05;;;;;;;;;;5077731;28;20028;-40
2021/06/24 02:13:42;;;;;;;6.95;1.50;;;;;;;;;;5079566;28;20082;-39
2021/06/24 02:16:07;;;;;;;3.08;2.20;;;;;;;;;;5076715;28;20039;-40
2021/06/24 02:18:32;;;;;;;10.25;1.13;;;;;;;;;;5073141;28;20024;-39
2021/06/24 02:20:58;;;;;;;6.30;2.13;;;;;;;;;;5076250;28;20395;-39
2021/06/24 02:23:23;;;;;;;2.25;1.20;;;;;;;;;;5072746;28;20077;-39
2021/06/24 02:25:48;;;;;;;2.30;1.23;;;;;;;;;;5075469;28;20066;-39
2021/06/24 02:28:14;;;;;;;2.15;0.77;;;;;;;;;;5075322;28;20008;-40
2021/06/24 02:30:39;;;;;;;2.58;1.98;;;;;;;;;;5074456;28;20522;-39
2021/06/24 02:33:06;;;;;;;4.50;1.20;;;;;;;;;;5075898;28;20017;-39
2021/06/24 02:35:33;;;;;;;1.17;0.88;;;;;;;;;;5077048;28;20024;-39
2021/06/24 02:37:58;;;;;;;3.22;1.27;;;;;;;;;;5071949;28;20016;-39
2021/06/24 02:40:23;;;;;;;7.70;2.20;;;;;;;;;;5074836;28;20085;-39
2021/06/24 02:42:49;;;;;;;2.50;1.27;;;;;;;;;;5078149;28;20032;-38
2021/06/24 02:45:14;;;;;;;7.57;1.63;;;;;;;;;;5077158;28;20519;-39
2021/06/24 02:47:40;;;;;;;3.50;1.25;;;;;;;;;;5078656;28;20073;-39
2021/06/24 02:50:07;;;;;;;17.05;1.80;;;;;;;;;;5076286;28;20013;-39
2021/06/24 02:52:32;;;;;;;2.58;1.98;;;;;;;;;;5076971;28;20046;-39
2021/06/24 02:54:57;;;;;;;4.82;2.20;;;;;;;;;;5074989;28;20535;-39
2021/06/24 02:57:23;;;;;;;3.08;0.75;;;;;;;;;;5078124;28;20035;-39
2021/06/24 02:59:48;;;;;;;3.28;1.42;;;;;;;;;;5073754;28;20463;-39
2021/06/24 03:02:13;;;;;;;11.50;2.38;;;;;;;;;;5074000;28;20040;-39
2021/06/24 03:04:39;;;;;;;6.93;1.08;;;;;;;;;;5073993;28;20020;-39
2021/06/24 03:07:04;;;;;;;1.80;0.88;;;;;;;;;;5077915;28;20044;-41
2021/06/24 03:09:30;;;;;;;3.17;1.23;;;;;;;;;;5079310;28;20055;-40
2021/06/24 03:11:55;;;;;;;2.53;1.35;;;;;;;;;;5079368;28;20099;-39
2021/06/24 03:14:21;;;;;;;2.63;1.85;;;;;;;;;;5076884;28;20112;-39
2021/06/24 03:16:46;;;;;;;3.72;1.13;;;;;;;;;;5080916;28;20040;-41
2021/06/24 03:19:12;;;;;;;6.75;1.80;;;;;;;;;;5081879;28;20356;-39
2021/06/24 03:21:38;;;;;;;5.93;1.08;;;;;;;;;;5081509;28;20024;-39
2021/06/24 03:24:03;;;;;;;4.38;2.17;;;;;;;;;;5081780;28;20444;-40
2021/06/24 03:26:29;;;;;;;3.53;2.03;;;;;;;;;;5078547;28;20017;-39
2021/06/24 03:28:54;;;;;;;3.15;2.30;;;;;;;;;;5081380;28;20357;-39
2021/06/24 03:31:19;;;;;;;2.92;1.40;;;;;;;;;;5079570;28;20016;-40
2021/06/24 03:33:45;;;;;;;4.85;1.42;;;;;;;;;;5082488;28;20020;-39
2021/06/24 03:36:10;;;;;;;14.05;1.13;;;;;;;;;;5082132;28;20495;-39
2021/06/24 03:38:35;;;;;;;3.10;1.25;;;;;;;;;;5077743;28;20039;-39
2021/06/24 03:41:01;;;;;;;3.65;1.10;;;;;;;;;;5078555;28;20027;-39
2021/06/24 03:43:26;;;;;;;3.80;2.10;;;;;;;;;;5079337;28;20099;-39
2021/06/24 03:45:51;;;;;;;8.15;1.85;;;;;;;;;;5080311;28;20975;-40
2021/06/24 03:48:17;;;;;;;5.13;1.92;;;;;;;;;;5080945;28;20551;-39
2021/06/24 03:50:42;;;;;;;4.43;2.40;;;;;;;;;;5077811;28;20515;-39
2021/06/24 03:53:07;;;;;;;2.75;1.60;;;;;;;;;;5079203;28;20020;-39
2021/06/24 03:55:51;;;;;;;1.50;0.98;;;;;;;;;;5078381;28;20027;-39
2021/06/24 03:58:17;;;;;;;1.02;0.82;;;;;;;;;;5075209;28;20020;-40
2021/06/24 04:00:43;;;;;;;4.38;1.75;;;;;;;;;;5078894;28;20471;-40
2021/06/24 04:03:09;;;;;;;6.82;1.83;;;;;;;;;;5079870;28;20042;-39
2021/06/24 04:05:34;;;;;;;31.23;24.27;;;;;;;;;;5082106;28;20526;-40
2021/06/24 04:08:00;;;;;;;4.00;1.77;;;;;;;;;;5081073;28;20054;-39
2021/06/24 04:10:28;;;;;;;5.75;2.17;;;;;;;;;;5078001;28;20038;-39
2021/06/24 04:12:57;;;;;;;2.20;1.60;;;;;;;;;;5076921;28;20073;-39
2021/06/24 04:15:23;;;;;;;4.13;1.98;;;;;;;;;;5078672;28;20056;-39
2021/06/24 04:17:48;;;;;;;7.55;3.00;;;;;;;;;;5077435;28;20467;-40
2021/06/24 04:20:14;;;;;;;6.18;1.13;;;;;;;;;;5080354;28;20022;-42
2021/06/24 04:22:39;;;;;;;3.33;1.80;;;;;;;;;;5075789;28;20027;-39
2021/06/24 04:25:05;;;;;;;5.00;1.73;;;;;;;;;;5079015;28;20538;-39
2021/06/24 04:27:30;;;;;;;1.95;0.95;;;;;;;;;;5079169;28;20042;-41
2021/06/24 04:29:56;;;;;;;3.80;1.55;;;;;;;;;;5079438;28;20027;-42
2021/06/24 04:32:21;;;;;;;2.80;1.25;;;;;;;;;;5079717;28;20024;-42
2021/06/24 04:34:46;;;;;;;3.05;1.70;;;;;;;;;;5078732;28;20035;-40
2021/06/24 04:37:11;;;;;;;1.45;1.15;;;;;;;;;;5079272;28;20028;-43
2021/06/24 04:39:37;;;;;;;2.95;2.38;;;;;;;;;;5074784;28;20523;-41
2021/06/24 04:42:02;;;;;;;9.85;1.55;;;;;;;;;;5079004;28;20380;-41
2021/06/24 04:44:27;;;;;;;1.00;0.80;;;;;;;;;;5079306;28;20497;-39
2021/06/24 04:46:54;;;;;;;4.30;1.23;;;;;;;;;;5077665;28;20020;-40
2021/06/24 04:49:19;;;;;;;2.95;1.77;;;;;;;;;;5079708;28;20012;-40
2021/06/24 04:51:45;;;;;;;3.15;2.03;;;;;;;;;;5078730;28;20095;-40
2021/06/24 04:54:10;;;;;;;4.93;2.75;;;;;;;;;;5082552;28;20032;-41
2021/06/24 04:56:35;;;;;;;7.22;0.98;;;;;;;;;;5079762;28;20024;-40
2021/06/24 04:59:01;;;;;;;2.10;1.23;;;;;;;;;;5077652;28;20031;-39
2021/06/24 05:01:26;;;;;;;10.75;2.50;;;;;;;;;;5078869;28;20042;-41
2021/06/24 05:03:51;;;;;;;7.70;2.22;;;;;;;;;;5080376;28;20051;-39
2021/06/24 05:06:17;;;;;;;2.88;1.77;;;;;;;;;;5080001;28;20024;-40
2021/06/24 05:08:42;;;;;;;9.15;2.22;;;;;;;;;;5083610;28;20049;-44
2021/06/24 05:11:07;;;;;;;7.15;1.40;;;;;;;;;;5077364;28;20062;-41
2021/06/24 05:13:33;;;;;;;3.42;1.88;;;;;;;;;;5077420;28;20024;-41
2021/06/24 05:15:59;;;;;;;9.23;1.90;;;;;;;;;;5079199;28;20021;-40
2021/06/24 05:18:24;;;;;;;2.35;1.13;;;;;;;;;;5076839;28;20103;-40
2021/06/24 05:20:49;;;;;;;3.42;1.85;;;;;;;;;;5077017;28;20471;-39
2021/06/24 05:23:16;;;;;;;4.78;1.90;;;;;;;;;;5078885;28;20019;-40
2021/06/24 05:25:42;;;;;;;2.20;1.67;;;;;;;;;;5081995;28;20558;-39
2021/06/24 05:28:08;;;;;;;5.00;2.30;;;;;;;;;;5074911;28;20396;-40
2021/06/24 05:30:34;;;;;;;3.67;1.92;;;;;;;;;;5077774;28;20542;-41
2021/06/24 05:32:59;;;;;;;4.28;2.78;;;;;;;;;;5075811;28;20025;-40
2021/06/24 05:35:24;;;;;;;3.83;2.53;;;;;;;;;;5076253;28;20115;-42
2021/06/24 05:37:49;;;;;;;6.50;2.78;;;;;;;;;;5080649;28;20394;-43
2021/06/24 05:40:15;;;;;;;3.20;1.88;;;;;;;;;;5078602;28;20028;-40
2021/06/24 05:42:40;;;;;;;17.25;2.55;;;;;;;;;;5074809;28;20021;-39
2021/06/24 05:45:06;;;;;;;4.68;4.00;;;;;;;;;;5075410;28;20032;-39
2021/06/24 05:47:31;;;;;;;3.35;2.70;;;;;;;;;;5078841;28;20039;-42
2021/06/24 05:49:57;;;;;;;6.63;3.28;;;;;;;;;;5075997;28;20686;-40
2021/06/24 05:52:22;;;;;;;12.57;3.40;;;;;;;;;;5076762;28;20052;-39
2021/06/24 05:54:47;;;;;;;5.18;3.15;;;;;;;;;;5078230;28;20032;-40
2021/06/24 05:57:13;;;;;;;6.90;3.75;;;;;;;;;;5076233;28;20052;-40
2021/06/24 05:59:38;;;;;;;4.82;3.80;;;;;;;;;;5074687;28;20032;-40
2021/06/24 06:02:03;;;;;;;3.63;2.65;;;;;;;;;;5076969;28;20391;-40
2021/06/24 06:04:29;;;;;;;2.85;2.05;;;;;;;;;;5078188;28;20119;-41
2021/06/24 06:06:54;;;;;;;3.47;1.98;;;;;;;;;;5074659;28;20048;-42
2021/06/24 06:09:19;;;;;;;4.80;1.80;;;;;;;;;;5078182;28;20016;-41
2021/06/24 06:11:45;;;;;;;3.47;1.42;;;;;;;;;;5075792;28;20364;-42
2021/06/24 06:14:10;;;;;;;2.30;1.02;;;;;;;;;;5075827;28;20128;-40
2021/06/24 06:16:36;;;;;;;0.80;0.80;;;;;;;;;;5077593;28;20023;-41
2021/06/24 06:19:01;;;;;;;2.53;1.13;;;;;;;;;;5077630;28;20024;-41
2021/06/24 06:21:30;;;;;;;5.63;1.45;;;;;;;;;;5075604;28;20038;-37
2021/06/24 06:23:56;;;;;;;7.00;1.42;;;;;;;;;;5077622;28;20020;-37
2021/06/24 06:26:23;;;;;;;1.17;1.00;;;;;;;;;;5075233;28;20031;-38
2021/06/24 06:28:49;;;;;;;1.00;0.50;;;;;;;;;;5077303;28;20474;-37
2021/06/24 06:31:16;;;;;;;3.10;1.10;;;;;;;;;;5075909;28;20452;-37
2021/06/24 06:33:41;;;;;;;3.15;1.52;;;;;;;;;;5075478;28;20115;-40
2021/06/24 06:36:06;;;;;;;1.48;1.00;;;;;;;;;;5076999;28;20495;-37
2021/06/24 06:38:32;;;;;;;1.73;1.25;;;;;;;;;;5078105;28;20066;-37
2021/06/24 06:40:57;;;;;;;3.75;0.93;;;;;;;;;;5076535;28;20136;-37
2021/06/24 06:43:23;;;;;;;1.73;0.80;;;;;;;;;;5072261;28;20028;-37
2021/06/24 06:45:48;;;;;;;1.67;1.40;;;;;;;;;;5076724;28;20050;-37
2021/06/24 06:48:14;;;;;;;5.95;2.25;;;;;;;;;;5080014;28;20020;-37
2021/06/24 06:50:40;;;;;;;4.10;2.67;;;;;;;;;;5080247;28;20048;-37
2021/06/24 06:53:06;;;;;;;6.45;1.83;;;;;;;;;;5081307;28;20411;-37
2021/06/24 06:55:32;;;;;;;8.25;1.63;;;;;;;;;;5078250;28;20036;-37
2021/06/24 06:57:57;;;;;;;6.35;1.67;;;;;;;;;;5077958;28;20036;-61
2021/06/24 07:00:27;;;;;;;9.00;1.85;;;;;;;;;;5074812;28;20473;-61
2021/06/24 07:02:53;;;;;;;3.00;1.52;;;;;;;;;;5077489;28;20106;-61
2021/06/24 07:05:18;;;;;;;1.45;0.88;;;;;;;;;;5079379;28;20036;-62
2021/06/24 07:07:44;;;;;;;1.55;0.75;;;;;;;;;;5077317;28;20052;-61
2021/06/24 07:10:09;;;;;;;2.30;1.30;;;;;;;;;;5076122;28;20127;-61
2021/06/24 07:12:35;;;;;;;10.15;1.60;;;;;;;;;;5079882;28;20104;-61
2021/06/24 07:15:00;;;;;;;5.80;2.65;;;;;;;;;;5077744;28;20020;-61
2021/06/24 07:17:26;;;;;;;2.17;1.38;;;;;;;;;;5080502;28;20115;-61
2021/06/24 07:19:52;;;;;;;2.30;1.10;;;;;;;;;;5081212;28;20053;-62
2021/06/24 07:22:17;;;;;;;1.98;1.02;;;;;;;;;;5078557;28;20494;-61
2021/06/24 07:24:43;;;;;;;3.88;2.35;;;;;;;;;;5079197;28;20043;-62
2021/06/24 07:27:08;;;;;;;2.78;1.15;;;;;;;;;;5078187;28;20048;-60
2021/06/24 07:29:33;;;;;;;10.10;2.88;;;;;;;;;;5078725;28;20428;-61
2021/06/24 07:31:59;;;;;;;10.20;3.58;;;;;;;;;;5077827;28;20027;-63
2021/06/24 07:34:24;;;;;;;8.55;2.22;;;;;;;;;;5080073;28;20036;-62
2021/06/24 07:36:50;;;;;;;4.57;1.95;;;;;;;;;;5077336;28;20024;-63
2021/06/24 07:39:16;;;;;;;5.38;1.70;;;;;;;;;;5075108;28;20687;-62
2021/06/24 07:41:41;;;;;;;3.78;2.40;;;;;;;;;;5077904;28;20024;-62
2021/06/24 07:44:07;;;;;;;2.25;1.42;;;;;;;;;;5078714;28;20027;-63
2021/06/24 07:46:32;;;;;;;18.95;1.98;;;;;;;;;;5082706;28;20489;-63
2021/06/24 07:48:57;;;;;;;4.72;2.22;;;;;;;;;;5079819;28;20028;-62
2021/06/24 07:51:23;;;;;;;7.50;1.77;;;;;;;;;;5075968;28;20016;-62
2021/06/24 07:53:48;;;;;;;1.75;1.23;;;;;;;;;;5079249;28;20036;-62
2021/06/24 07:56:14;;;;;;;2.15;1.55;;;;;;;;;;5079541;28;20093;-62
2021/06/24 07:58:39;;;;;;;5.25;3.20;;;;;;;;;;5077471;28;20028;-62
2021/06/24 08:01:05;;;;;;;5.30;2.92;;;;;;;;;;5078151;28;20026;-62
2021/06/24 08:03:30;;;;;;;3.55;2.25;;;;;;;;;;5077714;28;20558;-62
2021/06/24 08:05:56;;;;;;;2.78;1.88;;;;;;;;;;5075608;28;20020;-58
2021/06/24 08:08:21;;;;;;;5.68;3.20;;;;;;;;;;5077855;28;20045;-59
2021/06/24 08:10:47;;;;;;;2.80;1.33;;;;;;;;;;5076588;28;20483;-61
2021/06/24 08:13:12;;;;;;;2.80;1.65;;;;;;;;;;5077794;28;20032;-60
2021/06/24 08:15:37;;;;;;;5.00;1.85;;;;;;;;;;5078094;28;20047;-62
2021/06/24 08:18:03;;;;;;;1.80;1.58;;;;;;;;;;5075284;28;20431;-63
2021/06/24 08:20:28;;;;;;;6.28;3.45;;;;;;;;;;5075225;28;20383;-63
2021/06/24 08:22:55;;;;;;;3.75;1.83;;;;;;;;;;5073208;28;20035;-57
2021/06/24 08:25:20;;;;;;;3.13;2.08;;;;;;;;;;5077424;28;20106;-55
2021/06/24 08:27:46;;;;;;;3.50;2.58;;;;;;;;;;5078311;28;20585;-56
2021/06/24 08:30:11;;;;;;;2.60;1.27;;;;;;;;;;5076139;28;20082;-55
2021/06/24 08:32:37;;;;;;;3.28;2.97;;;;;;;;;;5074500;28;20024;-57
2021/06/24 08:35:03;;;;;;;3.50;1.50;;;;;;;;;;5076259;28;20064;-55
2021/06/24 08:37:29;;;;;;;4.78;1.33;;;;;;;;;;5077660;28;20019;-56
2021/06/24 08:39:54;;;;;;;11.05;2.08;;;;;;;;;;5074059;28;20051;-56
2021/06/24 08:42:19;;;;;;;8.10;3.00;;;;;;;;;;5073684;28;20475;-56
2021/06/24 08:44:45;;;;;;;3.60;2.30;;;;;;;;;;5074112;28;20040;-56
2021/06/24 08:47:14;;;;;;;2.08;1.52;;;;;;;;;;5071622;28;20759;-55
2021/06/24 08:49:40;;;;;;;1.55;1.05;;;;;;;;;;5075520;28;20036;-56
2021/06/24 08:52:07;;;;;;;5.00;1.75;;;;;;;;;;5075477;28;20065;-56
2021/06/24 08:54:32;;;;;;;8.65;1.98;;;;;;;;;;5076646;28;20074;-55
2021/06/24 08:56:57;;;;;;;5.90;2.08;;;;;;;;;;5077784;28;20031;-55
2021/06/24 08:59:23;;;;;;;4.03;1.27;;;;;;;;;;5073750;28;20027;-55
2021/06/24 09:01:53;;;;;;;4.53;1.23;;;;;;;;;;5073525;28;20111;-54
2021/06/24 09:04:23;;;;;;;6.40;2.20;;;;;;;;;;5074271;28;20488;-55
2021/06/24 09:06:48;;;;;;;5.10;1.38;;;;;;;;;;5075933;28;20125;-55
2021/06/24 09:09:24;;;;;;;5.65;2.72;;;;;;;;;;5073611;28;20032;-56
2021/06/24 09:11:58;;;;;;;3.22;1.77;;;;;;;;;;5075730;28;20391;-57
2021/06/24 09:14:24;;;;;;;5.05;4.57;;;;;;;;;;5071852;28;20028;-58
2021/06/24 09:16:49;;;;;;;1.85;1.05;;;;;;;;;;5070841;28;20086;-50
2021/06/24 09:19:26;;;;;;;1.40;1.13;;;;;;;;;;5070329;28;20103;-57
2021/06/24 09:21:59;;;;;;;1.58;0.98;;;;;;;;;;5076006;28;20147;-56
2021/06/24 09:24:25;;;;;;;0.45;0.32;;;;;;;;;;5073680;28;20109;-57
2021/06/24 09:26:50;;;;;;;3.80;1.30;;;;;;;;;;5072004;28;20020;-57
2021/06/24 09:29:16;;;;;;;1.95;1.13;;;;;;;;;;5073010;28;20151;-57
2021/06/24 09:31:43;;;;;;;10.52;2.92;;;;;;;;;;5075046;28;20132;-57
2021/06/24 09:34:10;;;;;;;1.90;1.15;;;;;;;;;;5074453;28;20033;-57
2021/06/24 09:36:40;;;;;;;3.53;1.55;;;;;;;;;;5075439;28;20019;-60
2021/06/24 09:39:27;;;;;;;2.20;1.45;;;;;;;;;;5075765;28;20497;-63
2021/06/24 09:41:56;;;;;;;5.97;1.05;;;;;;;;;;5077495;28;20613;-61
2021/06/24 09:44:24;;;;;;;4.07;1.38;;;;;;;;;;5076394;28;20179;-61
2021/06/24 09:46:49;;;;;;;2.30;0.85;;;;;;;;;;5072762;28;20047;-61
2021/06/24 09:49:28;;;;;;;1.63;0.82;;;;;;;;;;5072358;28;20024;-61
2021/06/24 09:51:54;;;;;;;4.25;1.50;;;;;;;;;;5077739;28;20103;-60
2021/06/24 09:54:28;;;;;;;3.85;1.65;;;;;;;;;;5073040;28;20037;-63
2021/06/24 09:56:55;;;;;;;2.28;0.70;;;;;;;;;;5073205;28;20049;-62
2021/06/24 09:59:29;;;;;;;1.95;1.17;;;;;;;;;;5076024;28;20049;-63
2021/06/24 10:01:54;;;;;;;3.00;1.40;;;;;;;;;;5074872;28;20016;-63
2021/06/24 10:04:24;;;;;;;5.13;1.10;;;;;;;;;;5076636;28;20020;-62
2021/06/24 10:06:50;;;;;;;1.08;0.95;;;;;;;;;;5077490;28;20060;-61
2021/06/24 10:09:16;;;;;;;0.82;0.50;;;;;;;;;;5074121;28;20085;-61
2021/06/24 10:11:42;;;;;;;5.50;1.20;;;;;;;;;;5077673;28;20020;-61
2021/06/24 10:14:07;;;;;;;6.53;3.13;;;;;;;;;;5076965;28;20069;-61
2021/06/24 10:16:33;;;;;;;9.10;1.05;;;;;;;;;;5074514;28;20031;-65
2021/06/24 10:18:59;;;;;;;1.92;1.42;;;;;;;;;;5076136;28;20103;-62
2021/06/24 10:21:25;;;;;;;2.88;1.58;;;;;;;;;;5069263;28;20480;-63
2021/06/24 10:23:56;;;;;;;5.00;1.25;;;;;;;;;;5073750;28;20078;-62
2021/06/24 10:26:22;;;;;;;4.57;1.85;;;;;;;;;;5072780;28;20016;-62
2021/06/24 10:28:47;;;;;;;1.92;0.90;;;;;;;;;;5071150;28;20108;-62
2021/06/24 10:31:31;;;;;;;3.75;1.00;;;;;;;;;;5076773;28;20108;-61
2021/06/24 10:33:56;;;;;;;5.32;1.48;;;;;;;;;;5072776;28;20080;-61
2021/06/24 10:36:22;;;;;;;3.38;1.35;;;;;;;;;;5074340;28;20387;-61
2021/06/24 10:38:51;;;;;;;2.05;1.25;;;;;;;;;;5070701;28;20471;-61
2021/06/24 10:41:16;;;;;;;1.92;0.77;;;;;;;;;;5075788;28;20040;-61
2021/06/24 10:43:46;;;;;;;2.40;1.40;;;;;;;;;;5076634;28;20025;-61
2021/06/24 10:46:13;;;;;;;8.57;4.18;;;;;;;;;;5075236;28;20222;-60
2021/06/24 10:48:38;;;;;;;1.73;0.90;;;;;;;;;;5076439;28;20080;-60
2021/06/24 10:51:05;;;;;;;1.95;0.95;;;;;;;;;;5070896;28;20020;-61
2021/06/24 10:53:33;;;;;;;10.80;1.83;;;;;;;;;;5069774;28;20048;-61
2021/06/24 10:55:59;;;;;;;2.50;1.25;;;;;;;;;;5076057;28;20039;-61
2021/06/24 10:58:27;;;;;;;6.38;3.30;;;;;;;;;;5072150;28;20380;-61
2021/06/24 11:00:54;;;;;;;4.65;1.60;;;;;;;;;;5072812;28;20097;-61
2021/06/24 11:03:31;;;;;;;3.78;2.03;;;;;;;;;;5075741;28;20020;-61
2021/06/24 11:06:16;;;;;;;2.05;0.98;;;;;;;;;;5075847;28;20031;-61
2021/06/24 11:08:42;;;;;;;2.70;1.05;;;;;;;;;;5070223;28;20116;-62
2021/06/24 11:11:08;;;;;;;5.13;1.20;;;;;;;;;;5070915;28;20024;-62
2021/06/24 11:13:39;;;;;;;5.25;2.67;;;;;;;;;;5074765;28;20042;-63
2021/06/24 11:16:05;;;;;;;2.67;1.13;;;;;;;;;;5073630;28;20024;-61
2021/06/24 11:18:32;;;;;;;2.42;1.10;;;;;;;;;;5070717;28;20048;-61
2021/06/24 11:21:00;;;;;;;3.45;1.27;;;;;;;;;;5072941;28;20024;-61
2021/06/24 11:23:34;;;;;;;1.13;0.70;;;;;;;;;;5074559;28;20017;-61
2021/06/24 11:26:04;;;;;;;1.58;0.75;;;;;;;;;;5077244;28;20028;-63
2021/06/24 11:28:55;;;;;;;1.60;0.82;;;;;;;;;;5077353;28;20117;-63
2021/06/24 11:31:33;;;;;;;2.75;1.20;;;;;;;;;;5075008;28;20107;-63
2021/06/24 11:36:34;;;;;;;3.42;1.08;;;;;;;;;;5081896;28;20023;-64
2021/06/24 11:38:59;;;;;;;1.65;1.20;;;;;;;;;;5076082;28;20059;-62
2021/06/24 11:41:24;;;;;;;3.85;1.40;;;;;;;;;;5074573;28;20028;-61
2021/06/24 11:43:57;;;;;;;1.02;0.73;;;;;;;;;;5076375;28;20046;-61
2021/06/24 11:46:27;;;;;;;1.40;1.00;;;;;;;;;;5078159;28;20017;-62
2021/06/24 11:48:53;;;;;;;1.27;0.70;;;;;;;;;;5077375;28;20028;-62
2021/06/24 12:05:07;;;;;;;6.72;2.22;;;;;;;;;;5077008;28;20028;-61
2021/06/24 12:07:33;;;;;;;2.53;1.00;;;;;;;;;;5076112;28;20656;-61
2021/06/24 12:09:58;;;;;;;9.18;3.33;;;;;;;;;;5076323;28;20111;-62
2021/06/24 12:12:24;;;;;;;3.47;1.98;;;;;;;;;;5076399;28;20586;-62
2021/06/24 12:14:51;;;;;;;2.47;1.63;;;;;;;;;;5076566;28;20036;-62
2021/06/24 12:17:31;;;;;;;3.65;1.70;;;;;;;;;;5078563;28;20020;-62
2021/06/24 12:20:05;;;;;;;5.00;0.50;;;;;;;;;;5078887;28;20024;-62
2021/06/24 12:22:31;;;;;;;1.13;0.80;;;;;;;;;;5077837;28;20069;-62
2021/06/24 12:24:56;;;;;;;2.53;1.23;;;;;;;;;;5076142;28;20568;-62
2021/06/24 12:27:24;;;;;;;2.78;1.13;;;;;;;;;;5077100;28;20020;-61
2021/06/24 12:29:51;;;;;;;0.68;0.47;;;;;;;;;;5075927;28;20047;-61
2021/06/24 12:32:17;;;;;;;2.30;1.15;;;;;;;;;;5076956;28;20084;-61
2021/06/24 12:34:42;;;;;;;5.28;1.20;;;;;;;;;;5079353;28;20032;-61
2021/06/24 12:37:08;;;;;;;5.65;1.75;;;;;;;;;;5075980;28;20028;-62
2021/06/24 12:39:33;;;;;;;3.30;1.65;;;;;;;;;;5075155;28;20506;-62
2021/06/24 12:42:02;;;;;;;1.25;0.77;;;;;;;;;;5071752;28;20035;-62
2021/06/24 12:44:27;;;;;;;2.05;1.02;;;;;;;;;;5072543;28;20221;-62
2021/06/24 12:46:53;;;;;;;4.07;1.60;;;;;;;;;;5073696;28;20123;-62
2021/06/24 12:49:18;;;;;;;2.78;1.52;;;;;;;;;;5078502;28;20218;-62
2021/06/24 12:51:44;;;;;;;6.57;1.70;;;;;;;;;;5076441;28;20734;-62
2021/06/24 12:54:16;;;;;;;3.40;1.27;;;;;;;;;;5076010;28;20029;-63
2021/06/24 12:56:44;;;;;;;2.65;1.52;;;;;;;;;;5072505;28;20024;-62
2021/06/24 12:59:09;;;;;;;3.03;2.15;;;;;;;;;;5076817;28;20020;-63
2021/06/24 13:01:38;;;;;;;4.97;3.72;;;;;;;;;;5076256;28;20028;-62
2021/06/24 13:04:30;;;;;;;5.40;3.85;;;;;;;;;;5075692;28;20062;-62
2021/06/24 13:07:01;;;;;;;2.28;1.30;;;;;;;;;;5072830;28;20040;-62
2021/06/24 13:09:52;;;;;;;7.43;3.08;;;;;;;;;;5077157;28;20095;-62
2021/06/24 13:12:17;;;;;;;2.17;1.45;;;;;;;;;;5072029;28;20460;-62
2021/06/24 13:14:44;;;;;;;2.35;1.38;;;;;;;;;;5076911;28;20060;-61
2021/06/24 13:17:14;;;;;;;5.00;1.63;;;;;;;;;;5076257;28;20028;-61
2021/06/24 13:19:41;;;;;;;2.28;1.35;;;;;;;;;;5074427;28;20107;-63
2021/06/24 13:22:12;;;;;;;3.63;0.70;;;;;;;;;;5077842;28;20031;-62
2021/06/24 13:24:48;;;;;;;1.40;0.52;;;;;;;;;;5077705;28;20139;-62
2021/06/24 13:27:14;;;;;;;1.08;0.57;;;;;;;;;;5074814;28;20016;-62
2021/06/24 13:30:00;;;;;;;4.15;1.35;;;;;;;;;;5075534;28;20020;-62
2021/06/24 13:32:26;;;;;;;9.60;4.28;;;;;;;;;;5073710;28;20105;-54
2021/06/24 13:34:52;;;;;;;12.02;3.97;;;;;;;;;;5074458;28;20512;-54
2021/06/24 13:37:18;;;;;;;6.68;2.55;;;;;;;;;;5073413;28;20059;-51
2021/06/24 13:39:44;;;;;;;4.57;3.00;;;;;;;;;;5074135;28;20032;-52
2021/06/24 13:42:09;;;;;;;3.92;1.55;;;;;;;;;;5076651;28;20027;-54
2021/06/24 13:44:35;;;;;;;3.17;1.23;;;;;;;;;;5075198;28;20443;-54
2021/06/24 13:47:00;;;;;;;4.45;1.42;;;;;;;;;;5074706;28;20047;-54
2021/06/24 13:49:26;;;;;;;2.55;1.30;;;;;;;;;;5074439;28;20028;-53
2021/06/24 13:51:52;;;;;;;2.85;1.55;;;;;;;;;;5074938;28;20052;-53
2021/06/24 13:54:18;;;;;;;0.38;0.30;;;;;;;;;;5073985;28;20020;-52
2021/06/24 13:56:45;;;;;;;2.53;1.02;;;;;;;;;;5074274;28;20547;-51
2021/06/24 13:59:10;;;;;;;1.08;0.60;;;;;;;;;;5074336;28;20027;-53
2021/06/24 14:01:36;;;;;;;0.98;0.90;;;;;;;;;;5071796;28;20024;-53
2021/06/24 14:04:02;;;;;;;1.48;0.73;;;;;;;;;;5074799;28;20021;-53
2021/06/24 14:06:48;;;;;;;2.13;0.75;;;;;;;;;;5070554;28;20673;-62
2021/06/24 14:09:17;;;;;;;1.83;0.68;;;;;;;;;;5075603;28;20044;-62
2021/06/24 14:11:47;;;;;;;0.90;0.50;;;;;;;;;;5075401;28;20019;-62
2021/06/24 14:14:12;;;;;;;7.82;2.53;;;;;;;;;;5071320;28;20028;-62
2021/06/24 14:16:38;;;;;;;6.53;0.88;;;;;;;;;;5073623;28;20044;-62
2021/06/24 14:19:04;;;;;;;1.15;0.75;;;;;;;;;;5074369;28;20130;-61
2021/06/24 14:21:30;;;;;;;1.63;0.95;;;;;;;;;;5075581;28;20028;-62
2021/06/24 14:23:57;;;;;;;6.53;1.63;;;;;;;;;;5074591;28;20498;-61
2021/06/24 14:26:23;;;;;;;2.15;0.65;;;;;;;;;;5078259;28;20027;-61
2021/06/24 14:28:49;;;;;;;1.67;0.90;;;;;;;;;;5075023;28;20119;-61
2021/06/24 14:31:15;;;;;;;9.82;1.83;;;;;;;;;;5073972;28;20099;-61
2021/06/24 14:33:40;;;;;;;9.18;0.88;;;;;;;;;;5069190;28;20506;-61
2021/06/24 14:36:06;;;;;;;1.67;0.95;;;;;;;;;;5074237;28;20009;-61
2021/06/24 14:38:32;;;;;;;1.30;1.00;;;;;;;;;;5073189;28;20051;-61
2021/06/24 14:40:57;;;;;;;3.15;1.02;;;;;;;;;;5072715;28;20024;-61
2021/06/24 14:43:24;;;;;;;3.63;1.40;;;;;;;;;;5072112;28;20061;-62
2021/06/24 14:45:50;;;;;;;0.68;0.30;;;;;;;;;;5071082;28;20029;-63
2021/06/24 14:48:15;;;;;;;0.85;0.50;;;;;;;;;;5077039;28;20376;-61
2021/06/24 14:50:41;;;;;;;1.25;0.47;;;;;;;;;;5079143;28;20060;-65
2021/06/24 14:53:06;;;;;;;4.05;0.60;;;;;;;;;;5075635;28;20039;-61
2021/06/24 14:55:34;;;;;;;3.97;1.60;;;;;;;;;;5076648;28;20032;-63